Time;durP1;ratioP1;P1;durP2;ratioP2;P2;SDS_P1;SDS_P2;PMS_P1;PMS_P2;Temp;Humidity;BMP_temperature;BMP_pressure;BME280_temperature;BME280_humidity;BME280_pressure;Samples;Min_cycle;Max_cycle;Signal;HPM_P1;HPM_P2
2023/10/19 00:00:19;;;;;;;4.72;0.88;;;21.50;99.90;;;;;;5032026;28;20612;-79
2023/10/19 00:02:54;;;;;;;3.72;0.95;;;21.60;99.90;;;;;;5029759;28;20223;-80
2023/10/19 00:05:26;;;;;;;4.40;0.88;;;21.60;99.90;;;;;;5028089;28;20189;-79
2023/10/19 00:07:57;;;;;;;2.83;1.50;;;21.50;99.90;;;;;;5031208;28;20224;-79
2023/10/19 00:10:30;;;;;;;4.82;1.10;;;21.50;99.90;;;;;;5031729;28;20642;-79
2023/10/19 00:13:03;;;;;;;3.72;0.77;;;21.50;99.90;;;;;;5032611;28;20197;-79
2023/10/19 00:15:39;;;;;;;1.83;1.00;;;21.50;99.90;;;;;;5032500;28;20201;-78
2023/10/19 00:18:23;;;;;;;2.28;0.70;;;21.50;99.90;;;;;;5031530;28;20313;-78
2023/10/19 00:20:54;;;;;;;3.17;0.68;;;21.40;99.90;;;;;;5023627;28;20205;-78
2023/10/19 00:23:33;;;;;;;5.63;0.93;;;21.30;99.90;;;;;;5031069;28;20585;-78
2023/10/19 00:26:08;;;;;;;3.08;0.70;;;21.20;99.90;;;;;;5030534;28;20201;-77
2023/10/19 00:28:41;;;;;;;3.88;0.90;;;21.10;99.90;;;;;;5031046;28;20204;-79
2023/10/19 00:31:11;;;;;;;3.15;0.80;;;21.10;99.90;;;;;;5030711;28;20316;-79
2023/10/19 00:33:42;;;;;;;2.95;0.88;;;21.00;99.90;;;;;;5029513;28;20239;-79
2023/10/19 00:36:16;;;;;;;3.97;0.82;;;21.00;99.90;;;;;;5012080;28;20202;-79
2023/10/19 00:38:52;;;;;;;3.67;0.80;;;21.00;99.90;;;;;;5011721;28;20186;-80
2023/10/19 00:41:29;;;;;;;2.63;0.57;;;21.00;99.90;;;;;;5024649;28;20220;-79
2023/10/19 00:44:10;;;;;;;3.38;0.98;;;21.10;99.90;;;;;;5030733;28;20225;-79
2023/10/19 00:46:43;;;;;;;3.67;0.75;;;21.20;99.90;;;;;;5029651;28;20212;-79
2023/10/19 00:49:14;;;;;;;2.63;0.82;;;21.30;99.90;;;;;;5018903;28;20209;-79
2023/10/19 00:51:54;;;;;;;6.15;0.80;;;21.40;99.90;;;;;;5031274;28;20263;-80
2023/10/19 00:54:35;;;;;;;2.60;0.70;;;21.50;99.90;;;;;;5034999;28;20189;-79
2023/10/19 00:57:08;;;;;;;4.78;0.93;;;21.50;99.90;;;;;;5028474;28;20197;-78
2023/10/19 00:59:43;;;;;;;1.35;0.70;;;21.60;99.90;;;;;;5032181;28;20611;-80
2023/10/19 01:02:20;;;;;;;2.55;0.65;;;21.50;99.90;;;;;;5026912;28;20205;-79
2023/10/19 01:04:59;;;;;;;4.10;0.70;;;21.50;99.90;;;;;;5027335;28;20308;-80
2023/10/19 01:07:33;;;;;;;4.65;0.80;;;21.60;99.90;;;;;;5030267;28;20193;-80
2023/10/19 01:10:07;;;;;;;6.95;0.70;;;21.60;99.90;;;;;;5029844;28;20209;-79
2023/10/19 01:12:40;;;;;;;4.20;0.95;;;21.70;99.90;;;;;;5030094;28;20673;-79
2023/10/19 01:15:16;;;;;;;3.15;0.60;;;21.80;99.90;;;;;;5030438;28;20201;-80
2023/10/19 01:17:53;;;;;;;2.42;0.63;;;21.90;99.90;;;;;;5030371;28;20217;-79
2023/10/19 01:20:34;;;;;;;1.88;0.77;;;22.20;99.90;;;;;;5028449;28;20202;-79
2023/10/19 01:23:20;;;;;;;3.25;0.60;;;22.20;99.90;;;;;;5016076;28;20194;-79
2023/10/19 01:25:59;;;;;;;0.57;0.47;;;22.30;99.90;;;;;;5010792;28;20212;-79
2023/10/19 01:28:42;;;;;;;2.17;0.70;;;22.30;99.90;;;;;;5012279;28;20654;-79
2023/10/19 01:31:17;;;;;;;3.53;0.70;;;22.40;99.90;;;;;;5010530;28;20698;-79
2023/10/19 01:33:48;;;;;;;1.17;0.50;;;22.40;99.90;;;;;;5013878;28;20291;-80
2023/10/19 01:36:28;;;;;;;1.75;0.60;;;22.40;99.90;;;;;;5020746;28;20281;-78
2023/10/19 01:39:01;;;;;;;2.83;0.90;;;22.40;99.90;;;;;;5029706;28;20201;-79
2023/10/19 01:41:32;;;;;;;4.18;0.70;;;22.40;99.90;;;;;;5024124;28;20739;-79
2023/10/19 01:44:04;;;;;;;3.63;0.73;;;22.40;99.90;;;;;;5021477;28;20222;-79
2023/10/19 01:46:36;;;;;;;1.50;0.80;;;22.40;99.90;;;;;;5024633;28;20193;-79
2023/10/19 01:49:08;;;;;;;2.33;0.80;;;22.40;99.90;;;;;;5027914;28;20199;-79
2023/10/19 01:51:40;;;;;;;3.75;0.80;;;22.60;99.90;;;;;;5030089;28;20205;-79
2023/10/19 01:54:11;;;;;;;5.32;0.90;;;22.60;99.90;;;;;;5029888;28;20247;-79
2023/10/19 01:56:45;;;;;;;2.75;0.60;;;22.70;99.90;;;;;;5034028;28;20235;-79
2023/10/19 01:59:16;;;;;;;5.97;0.75;;;22.60;99.90;;;;;;5050770;28;20193;-77
2023/10/19 02:01:47;;;;;;;2.67;0.82;;;22.70;99.90;;;;;;5025344;28;20277;-79
2023/10/19 02:04:16;;;;;;;4.60;0.70;;;22.80;99.90;;;;;;5028268;28;20217;-78
2023/10/19 02:06:48;;;;;;;5.40;1.10;;;22.90;99.90;;;;;;5030466;28;20205;-80
2023/10/19 02:09:23;;;;;;;2.17;0.85;;;22.80;99.90;;;;;;5013625;28;20236;-80
2023/10/19 02:11:55;;;;;;;2.75;0.65;;;22.80;99.90;;;;;;5014211;28;20255;-80
2023/10/19 02:14:25;;;;;;;1.58;0.77;;;22.90;99.90;;;;;;5014164;28;20190;-80
2023/10/19 02:16:59;;;;;;;2.50;0.90;;;22.90;99.90;;;;;;5016246;28;20245;-79
2023/10/19 02:19:29;;;;;;;2.55;0.80;;;22.80;99.90;;;;;;5027821;28;20205;-79
2023/10/19 02:22:03;;;;;;;3.53;0.90;;;22.70;99.90;;;;;;5031823;28;20608;-80
2023/10/19 02:24:36;;;;;;;2.65;0.70;;;22.60;99.90;;;;;;5018190;28;20259;-79
2023/10/19 02:27:05;;;;;;;4.97;0.75;;;22.70;99.90;;;;;;5013694;28;20198;-79
2023/10/19 02:29:37;;;;;;;4.00;0.73;;;22.80;99.90;;;;;;5015308;28;20776;-79
2023/10/19 02:32:10;;;;;;;4.30;1.02;;;22.70;99.90;;;;;;5027408;28;20204;-79
2023/10/19 02:34:39;;;;;;;4.82;1.00;;;22.80;99.90;;;;;;5027375;28;20753;-79
2023/10/19 02:37:10;;;;;;;4.13;0.90;;;22.90;99.90;;;;;;5026634;28;20233;-79
2023/10/19 02:39:43;;;;;;;5.40;0.60;;;23.00;99.90;;;;;;5032194;28;20201;-80
2023/10/19 02:42:14;;;;;;;4.28;0.90;;;22.90;99.90;;;;;;5033589;28;20193;-79
2023/10/19 02:44:43;;;;;;;2.72;0.60;;;22.90;99.90;;;;;;5022035;28;20721;-80
2023/10/19 02:47:14;;;;;;;3.10;0.50;;;22.90;99.90;;;;;;5013531;28;20609;-79
2023/10/19 02:49:44;;;;;;;2.53;0.80;;;22.90;99.90;;;;;;5026131;28;20650;-79
2023/10/19 02:52:16;;;;;;;3.03;0.80;;;23.00;99.90;;;;;;5031830;28;20700;-79
2023/10/19 02:54:47;;;;;;;3.20;0.70;;;23.10;99.90;;;;;;5013578;28;20597;-78
2023/10/19 02:57:19;;;;;;;2.95;0.90;;;23.00;99.90;;;;;;5015222;28;20205;-79
2023/10/19 02:59:48;;;;;;;3.38;0.70;;;23.10;99.90;;;;;;5041720;28;20204;-79
2023/10/19 03:02:19;;;;;;;4.13;0.75;;;23.20;99.90;;;;;;5040419;28;20198;-79
2023/10/19 03:04:48;;;;;;;4.93;0.98;;;23.10;99.90;;;;;;5022543;28;20220;-79
2023/10/19 03:07:19;;;;;;;5.70;0.90;;;23.00;99.90;;;;;;5033158;28;20185;-79
2023/10/19 03:09:53;;;;;;;3.65;1.05;;;23.10;99.90;;;;;;5026134;28;20287;-79
2023/10/19 03:12:26;;;;;;;4.65;0.98;;;23.00;99.90;;;;;;5021743;28;20197;-80
2023/10/19 03:14:55;;;;;;;2.42;0.77;;;22.90;99.90;;;;;;5026340;28;20193;-78
2023/10/19 03:17:28;;;;;;;3.85;0.80;;;23.00;99.90;;;;;;5017667;28;20194;-79
2023/10/19 03:19:57;;;;;;;4.40;0.77;;;22.90;99.90;;;;;;5022860;28;20229;-79
2023/10/19 03:22:28;;;;;;;4.90;0.82;;;23.00;99.90;;;;;;5015321;28;20230;-78
2023/10/19 03:25:43;;;;;;;3.40;1.00;;;23.00;99.90;;;;;;5016350;28;20213;-79
2023/10/19 03:27:51;;;;;;;3.75;0.88;;;23.00;99.90;;;;;;5017515;28;20666;-79
2023/10/19 03:30:24;;;;;;;4.68;1.00;;;23.00;99.90;;;;;;5012096;28;20269;-79
2023/10/19 03:32:56;;;;;;;4.15;1.10;;;23.00;99.90;;;;;;5021764;28;20224;-79
2023/10/19 03:35:26;;;;;;;3.85;0.98;;;23.00;99.90;;;;;;5031606;28;20236;-78
2023/10/19 03:38:00;;;;;;;3.33;0.88;;;23.10;99.90;;;;;;5031799;28;20223;-79
2023/10/19 03:40:34;;;;;;;5.10;1.02;;;23.20;99.90;;;;;;5012011;28;20202;-79
2023/10/19 03:43:16;;;;;;;3.03;0.80;;;23.10;99.90;;;;;;5017983;28;20190;-79
2023/10/19 03:45:51;;;;;;;2.45;0.93;;;23.10;99.90;;;;;;5012438;28;20237;-78
2023/10/19 03:48:26;;;;;;;5.13;0.98;;;22.90;99.90;;;;;;5019381;28;20644;-79
2023/10/19 03:50:57;;;;;;;4.43;1.02;;;22.90;99.90;;;;;;5030817;28;20292;-79
2023/10/19 03:53:28;;;;;;;3.17;0.82;;;23.10;99.90;;;;;;5022017;28;20278;-79
2023/10/19 03:56:03;;;;;;;2.90;0.80;;;23.10;99.90;;;;;;5028051;28;20204;-79
2023/10/19 03:58:35;;;;;;;4.80;0.80;;;23.00;99.90;;;;;;5027460;28;20221;-80
2023/10/19 04:01:07;;;;;;;2.85;0.90;;;22.90;99.90;;;;;;5013408;28;20198;-79
2023/10/19 04:03:38;;;;;;;5.22;0.90;;;23.00;99.90;;;;;;5034036;28;20200;-79
2023/10/19 04:06:13;;;;;;;5.35;1.02;;;23.30;99.90;;;;;;5034127;28;20757;-80
2023/10/19 04:08:50;;;;;;;4.05;0.90;;;23.60;99.90;;;;;;5031621;28;20251;-80
2023/10/19 04:11:32;;;;;;;5.15;0.80;;;23.60;99.90;;;;;;5031362;28;20225;-80
2023/10/19 04:14:03;;;;;;;6.55;1.00;;;23.80;99.90;;;;;;5031458;28;20259;-79
2023/10/19 04:16:37;;;;;;;2.15;0.70;;;23.90;99.90;;;;;;5031349;28;20198;-79
2023/10/19 04:19:09;;;;;;;2.20;0.90;;;23.90;99.90;;;;;;5028744;28;20206;-79
2023/10/19 04:21:43;;;;;;;3.78;0.80;;;24.00;99.90;;;;;;5032167;28;20202;-80
2023/10/19 04:24:17;;;;;;;4.82;0.80;;;24.00;99.90;;;;;;5030894;28;20220;-78
2023/10/19 04:26:50;;;;;;;3.15;0.70;;;23.90;99.90;;;;;;5031601;28;20204;-80
2023/10/19 04:29:27;;;;;;;4.28;0.70;;;23.90;99.90;;;;;;5030940;28;20233;-79
2023/10/19 04:31:59;;;;;;;6.93;1.00;;;23.90;99.90;;;;;;5020363;28;20237;-81
2023/10/19 04:34:29;;;;;;;2.60;0.77;;;23.90;99.90;;;;;;5018390;28;20201;-80
2023/10/19 04:37:03;;;;;;;4.43;0.93;;;24.10;99.90;;;;;;5019575;28;20706;-81
2023/10/19 04:39:34;;;;;;;1.80;0.55;;;23.80;99.90;;;;;;5030808;28;20193;-81
2023/10/19 04:42:07;;;;;;;3.95;0.63;;;24.10;99.90;;;;;;5031069;28;20205;-81
2023/10/19 04:44:37;;;;;;;2.67;0.80;;;24.30;99.70;;;;;;5028230;28;20228;-80
2023/10/19 04:47:08;;;;;;;4.43;0.90;;;24.60;98.30;;;;;;5027465;28;20205;-81
2023/10/19 04:49:39;;;;;;;2.50;0.68;;;24.70;98.00;;;;;;5021682;28;20216;-80
2023/10/19 04:52:09;;;;;;;4.20;0.80;;;24.60;97.50;;;;;;5030030;28;20205;-80
2023/10/19 04:54:40;;;;;;;3.80;0.82;;;24.60;97.20;;;;;;5012391;28;20564;-80
2023/10/19 04:57:13;;;;;;;3.38;0.70;;;24.70;96.30;;;;;;5021611;28;20204;-80
2023/10/19 04:59:45;;;;;;;3.15;0.70;;;24.80;95.80;;;;;;5029770;28;20666;-81
2023/10/19 05:02:16;;;;;;;3.47;0.90;;;25.00;95.40;;;;;;5016007;28;20194;-80
2023/10/19 05:04:47;;;;;;;2.17;0.70;;;24.90;94.90;;;;;;5028257;28;20203;-81
2023/10/19 05:07:18;;;;;;;3.58;0.82;;;25.00;94.10;;;;;;5045933;28;20224;-80
2023/10/19 05:09:49;;;;;;;3.08;0.77;;;25.10;93.30;;;;;;5024845;28;20204;-80
2023/10/19 05:12:22;;;;;;;3.30;0.52;;;24.90;92.60;;;;;;5029787;28;20284;-81
2023/10/19 05:14:52;;;;;;;1.98;0.70;;;25.10;92.70;;;;;;5029804;28;20194;-81
2023/10/19 05:17:23;;;;;;;2.20;0.68;;;25.10;91.30;;;;;;5022536;28;20205;-81
2023/10/19 05:19:54;;;;;;;2.13;0.80;;;25.20;90.80;;;;;;5025835;28;20197;-81
2023/10/19 05:22:29;;;;;;;3.20;0.70;;;25.30;90.30;;;;;;5029567;28;20658;-81
2023/10/19 05:25:01;;;;;;;3.58;0.60;;;25.50;90.10;;;;;;5027332;28;20221;-82
2023/10/19 05:27:33;;;;;;;4.15;0.77;;;25.60;90.60;;;;;;5026381;28;20659;-81
2023/10/19 05:30:04;;;;;;;1.88;0.80;;;25.70;90.60;;;;;;5022930;28;20242;-82
2023/10/19 05:32:35;;;;;;;2.28;0.70;;;25.80;87.70;;;;;;5019683;28;20247;-82
2023/10/19 05:35:06;;;;;;;3.38;0.68;;;25.70;88.20;;;;;;5030175;28;20186;-82
2023/10/19 05:37:37;;;;;;;2.20;0.70;;;26.00;84.20;;;;;;5034539;28;20216;-81
2023/10/19 05:40:12;;;;;;;1.55;0.50;;;25.90;84.20;;;;;;5031504;28;20276;-81
2023/10/19 05:42:45;;;;;;;2.13;0.52;;;25.90;85.30;;;;;;5015992;28;20209;-81
2023/10/19 05:45:17;;;;;;;6.63;0.90;;;26.20;86.70;;;;;;5034767;28;20248;-81
2023/10/19 05:47:48;;;;;;;2.42;0.73;;;26.20;87.10;;;;;;5035372;28;20617;-81
2023/10/19 05:50:19;;;;;;;2.80;0.70;;;26.20;86.50;;;;;;5034125;28;20705;-80
2023/10/19 05:52:51;;;;;;;3.65;0.93;;;26.40;87.80;;;;;;5030197;28;20217;-81
2023/10/19 05:55:23;;;;;;;3.47;0.80;;;26.30;85.70;;;;;;5024278;28;20673;-81
2023/10/19 05:57:56;;;;;;;2.58;0.70;;;26.40;86.50;;;;;;5034255;28;20233;-80
2023/10/19 06:00:27;;;;;;;4.45;0.93;;;26.50;85.90;;;;;;5016226;28;20233;-81
2023/10/19 06:02:59;;;;;;;1.63;0.60;;;26.80;84.00;;;;;;5027589;28;20201;-80
2023/10/19 06:05:30;;;;;;;3.40;0.57;;;27.00;84.30;;;;;;5035271;28;20664;-80
2023/10/19 06:08:01;;;;;;;6.20;0.80;;;27.00;81.30;;;;;;5043389;28;20182;-80
2023/10/19 06:10:32;;;;;;;1.73;0.60;;;27.10;79.80;;;;;;5029655;28;20217;-81
2023/10/19 06:13:09;;;;;;;5.70;0.90;;;27.20;78.10;;;;;;5034473;28;20205;-81
2023/10/19 06:15:41;;;;;;;2.80;0.82;;;27.50;76.30;;;;;;5020455;28;20347;-80
2023/10/19 06:18:13;;;;;;;2.95;0.60;;;27.50;73.20;;;;;;5027211;28;20213;-78
2023/10/19 06:20:48;;;;;;;3.90;0.90;;;27.50;73.40;;;;;;5031987;28;20214;-80
2023/10/19 06:23:18;;;;;;;5.30;0.80;;;27.70;71.90;;;;;;5034382;28;20232;-79
2023/10/19 06:25:51;;;;;;;3.92;0.90;;;27.50;73.00;;;;;;5034038;28;20237;-80
2023/10/19 06:28:23;;;;;;;2.33;0.55;;;27.40;71.70;;;;;;5033430;28;20248;-79
2023/10/19 06:30:54;;;;;;;2.40;0.68;;;27.20;74.70;;;;;;5032954;28;20232;-80
2023/10/19 06:33:28;;;;;;;2.22;0.63;;;27.70;74.20;;;;;;5030646;28;20201;-79
2023/10/19 06:35:59;;;;;;;1.92;0.55;;;27.70;74.30;;;;;;5013401;28;20210;-79
2023/10/19 06:38:31;;;;;;;1.77;0.52;;;27.70;73.70;;;;;;5018185;28;20197;-78
2023/10/19 06:41:02;;;;;;;2.95;0.63;;;27.80;74.70;;;;;;5033734;28;20548;-80
2023/10/19 06:43:36;;;;;;;1.55;0.50;;;27.70;74.30;;;;;;5033445;28;20237;-80
2023/10/19 06:46:06;;;;;;;3.25;0.70;;;27.60;73.90;;;;;;5032996;28;20228;-80
2023/10/19 06:48:37;;;;;;;2.25;0.70;;;27.50;73.70;;;;;;5033027;28;20205;-79
2023/10/19 06:51:08;;;;;;;2.60;0.70;;;27.80;74.00;;;;;;5038323;28;20189;-77
2023/10/19 06:53:39;;;;;;;2.60;0.75;;;27.90;73.90;;;;;;5018490;28;20572;-79
2023/10/19 06:56:10;;;;;;;2.80;0.70;;;27.40;76.00;;;;;;5021131;28;20229;-80
2023/10/19 06:58:44;;;;;;;3.67;0.98;;;27.30;76.30;;;;;;5013239;28;20308;-80
2023/10/19 07:01:16;;;;;;;4.65;0.85;;;27.20;76.70;;;;;;5028279;28;20292;-80
2023/10/19 07:03:47;;;;;;;4.00;0.75;;;27.10;78.40;;;;;;5033694;28;20209;-80
2023/10/19 07:06:18;;;;;;;3.70;0.70;;;27.10;77.30;;;;;;5033667;28;20224;-79
2023/10/19 07:08:48;;;;;;;3.20;0.95;;;27.20;78.00;;;;;;5037111;28;20257;-78
2023/10/19 07:11:19;;;;;;;5.20;0.90;;;27.10;78.40;;;;;;5044321;28;20217;-79
2023/10/19 07:13:53;;;;;;;3.17;0.90;;;26.90;79.50;;;;;;5033199;28;20201;-80
2023/10/19 07:16:24;;;;;;;4.38;1.20;;;26.70;79.00;;;;;;5030097;28;20194;-80
2023/10/19 07:18:55;;;;;;;2.58;0.90;;;26.20;82.00;;;;;;5031027;28;20220;-80
2023/10/19 07:21:29;;;;;;;1.73;0.75;;;25.80;82.80;;;;;;5031541;28;20208;-79
2023/10/19 07:24:04;;;;;;;3.72;1.08;;;25.50;85.80;;;;;;5023402;28;20197;-80
2023/10/19 07:26:43;;;;;;;2.80;0.95;;;25.00;90.10;;;;;;5012537;28;20283;-80
2023/10/19 07:29:16;;;;;;;3.65;0.90;;;24.50;91.20;;;;;;5031137;28;20648;-81
2023/10/19 07:31:47;;;;;;;3.17;0.80;;;24.20;92.70;;;;;;5027753;28;20572;-80
2023/10/19 07:34:18;;;;;;;2.95;0.90;;;23.80;94.40;;;;;;5029756;28;20194;-80
2023/10/19 07:36:49;;;;;;;3.83;0.98;;;23.50;96.80;;;;;;5032695;28;20197;-80
2023/10/19 07:39:20;;;;;;;3.53;0.80;;;23.00;99.50;;;;;;5032126;28;20204;-79
2023/10/19 07:41:51;;;;;;;2.92;0.88;;;22.80;99.90;;;;;;5023839;28;20206;-80
2023/10/19 07:44:24;;;;;;;5.80;1.30;;;22.60;99.90;;;;;;5026519;28;20201;-78
2023/10/19 07:46:54;;;;;;;4.32;1.52;;;22.30;99.90;;;;;;5022311;28;20233;-81
2023/10/19 07:49:25;;;;;;;3.28;0.95;;;22.20;99.90;;;;;;5020927;28;20190;-79
2023/10/19 07:51:57;;;;;;;3.47;1.02;;;22.10;99.90;;;;;;5023404;28;20276;-80
2023/10/19 07:54:28;;;;;;;3.97;1.10;;;21.80;99.90;;;;;;5030714;28;20228;-80
2023/10/19 07:57:03;;;;;;;4.22;1.15;;;21.70;99.90;;;;;;5031164;28;20646;-79
2023/10/19 07:59:35;;;;;;;2.83;0.82;;;21.60;99.90;;;;;;5018469;28;20662;-80
2023/10/19 08:02:08;;;;;;;3.88;1.48;;;21.60;99.90;;;;;;5019842;28;20611;-80
2023/10/19 08:04:39;;;;;;;3.80;1.13;;;21.50;99.90;;;;;;5030266;28;20201;-80
2023/10/19 08:07:10;;;;;;;3.28;0.90;;;21.50;99.90;;;;;;5014377;28;20286;-81
2023/10/19 08:09:41;;;;;;;4.82;1.08;;;21.40;99.90;;;;;;5020236;28;20230;-80
2023/10/19 08:12:13;;;;;;;2.95;0.98;;;21.40;99.90;;;;;;5041676;28;20257;-79
2023/10/19 08:14:46;;;;;;;4.18;1.27;;;21.40;99.90;;;;;;5029354;28;20709;-80
2023/10/19 08:17:17;;;;;;;2.88;0.75;;;21.40;99.90;;;;;;5014622;28;20276;-80
2023/10/19 08:19:47;;;;;;;5.10;1.55;;;21.30;99.90;;;;;;5027311;28;20211;-80
2023/10/19 08:22:19;;;;;;;7.45;1.30;;;21.20;99.90;;;;;;5031895;28;20193;-79
2023/10/19 08:24:49;;;;;;;5.20;1.10;;;21.10;99.90;;;;;;5031570;28;20201;-79
2023/10/19 08:27:21;;;;;;;4.88;1.08;;;21.10;99.90;;;;;;5024895;28;20221;-80
2023/10/19 08:29:55;;;;;;;4.85;1.20;;;21.10;99.90;;;;;;5025193;28;20232;-79
2023/10/19 08:32:26;;;;;;;3.72;1.15;;;21.00;99.90;;;;;;5017442;28;20192;-79
2023/10/19 08:34:57;;;;;;;5.50;1.08;;;21.00;99.90;;;;;;5027879;28;20260;-79
2023/10/19 08:37:28;;;;;;;5.68;1.13;;;21.00;99.90;;;;;;5031039;28;20692;-80
2023/10/19 08:40:00;;;;;;;3.53;1.05;;;20.90;99.90;;;;;;5027742;28;20193;-79
2023/10/19 08:42:31;;;;;;;5.60;1.15;;;20.90;99.90;;;;;;5023861;28;20621;-81
2023/10/19 08:45:08;;;;;;;5.25;1.20;;;20.90;99.90;;;;;;5031195;28;20680;-81
2023/10/19 08:47:39;;;;;;;9.40;1.70;;;20.90;99.90;;;;;;5031027;28;20309;-81
2023/10/19 08:50:11;;;;;;;4.85;1.10;;;20.90;99.90;;;;;;5023708;28;20210;-81
2023/10/19 08:52:44;;;;;;;6.95;1.35;;;20.80;99.90;;;;;;5017507;28;20208;-80
2023/10/19 08:55:15;;;;;;;4.65;1.10;;;20.80;99.90;;;;;;5031190;28;20223;-80
2023/10/19 08:57:46;;;;;;;5.22;1.00;;;20.80;99.90;;;;;;5024624;28;20248;-80
2023/10/19 09:00:24;;;;;;;5.35;1.30;;;20.70;99.90;;;;;;5011575;28;20281;-80
2023/10/19 09:02:56;;;;;;;7.32;1.50;;;20.60;99.90;;;;;;5011873;28;20560;-81
2023/10/19 09:05:27;;;;;;;7.35;1.25;;;20.60;99.90;;;;;;5030265;28;20193;-80
2023/10/19 09:07:59;;;;;;;5.60;1.20;;;20.60;99.90;;;;;;5016643;28;20193;-80
2023/10/19 09:10:32;;;;;;;7.85;1.50;;;20.60;99.90;;;;;;5028399;28;20263;-80
2023/10/19 09:13:04;;;;;;;4.88;1.20;;;20.50;99.90;;;;;;5039679;28;20258;-80
2023/10/19 09:15:38;;;;;;;5.20;1.55;;;20.60;99.90;;;;;;5042364;28;20662;-80
2023/10/19 09:18:19;;;;;;;6.00;1.27;;;20.50;99.90;;;;;;5032185;28;20674;-80
2023/10/19 09:21:02;;;;;;;7.70;1.45;;;20.50;99.90;;;;;;5040625;28;20284;-80
2023/10/19 09:23:32;;;;;;;3.13;1.17;;;20.50;99.90;;;;;;5040094;28;20193;-79
2023/10/19 09:26:05;;;;;;;5.95;1.60;;;20.50;99.90;;;;;;5029080;28;20221;-80
2023/10/19 09:28:38;;;;;;;5.80;1.38;;;20.50;99.90;;;;;;5032653;28;20201;-80
2023/10/19 09:31:11;;;;;;;6.57;1.25;;;20.50;99.90;;;;;;5018673;28;20232;-80
2023/10/19 09:33:45;;;;;;;6.97;1.10;;;20.50;99.90;;;;;;5025361;28;20240;-80
2023/10/19 09:36:22;;;;;;;5.07;1.20;;;20.40;99.90;;;;;;5027426;28;20197;-80
2023/10/19 09:38:53;;;;;;;7.05;1.42;;;20.50;99.90;;;;;;5037795;28;20688;-80
2023/10/19 09:41:28;;;;;;;8.18;1.50;;;20.40;99.90;;;;;;5024164;28;20206;-80
2023/10/19 09:44:06;;;;;;;4.45;1.20;;;20.50;99.90;;;;;;5027169;28;20205;-80
2023/10/19 09:46:41;;;;;;;9.25;1.40;;;20.40;99.90;;;;;;5027339;28;20771;-80
2023/10/19 09:49:13;;;;;;;5.47;1.45;;;20.30;99.90;;;;;;5028225;28;20249;-79
2023/10/19 09:51:45;;;;;;;5.25;1.20;;;20.40;99.90;;;;;;5016077;28;20285;-79
2023/10/19 09:54:25;;;;;;;6.45;1.25;;;20.40;99.90;;;;;;5028710;28;20195;-78
2023/10/19 09:57:16;;;;;;;7.50;1.30;;;20.40;99.90;;;;;;5034448;28;20292;-80
2023/10/19 09:59:52;;;;;;;4.28;1.23;;;20.40;99.90;;;;;;5015971;28;20202;-81
2023/10/19 10:02:25;;;;;;;3.45;1.10;;;20.30;99.90;;;;;;5033306;28;20866;-81
2023/10/19 10:04:57;;;;;;;7.97;1.20;;;20.30;99.90;;;;;;5034290;28;20284;-80
2023/10/19 10:07:28;;;;;;;5.30;1.40;;;20.30;99.90;;;;;;5028164;28;20217;-79
2023/10/19 10:09:59;;;;;;;6.60;1.30;;;20.20;99.90;;;;;;5026344;28;20281;-79
2023/10/19 10:12:30;;;;;;;8.10;1.08;;;20.20;99.90;;;;;;5013446;28;20194;-81
2023/10/19 10:15:05;;;;;;;4.00;0.98;;;20.30;99.90;;;;;;5018372;28;20241;-79
2023/10/19 10:17:40;;;;;;;6.03;1.08;;;20.20;99.90;;;;;;5041525;28;20205;-80
2023/10/19 10:20:36;;;;;;;6.45;1.25;;;20.20;99.90;;;;;;5015665;28;20224;-79
2023/10/19 10:23:31;;;;;;;4.78;1.30;;;20.30;99.90;;;;;;5025909;28;20659;-85
2023/10/19 10:26:04;;;;;;;7.70;1.30;;;20.30;99.90;;;;;;5036744;28;20249;-80
2023/10/19 10:28:35;;;;;;;4.07;1.05;;;20.10;99.90;;;;;;5037224;28;20204;-80
2023/10/19 10:31:22;;;;;;;4.57;1.13;;;20.20;99.90;;;;;;5034460;28;20221;-82
2023/10/19 10:33:56;;;;;;;5.72;1.20;;;20.20;99.90;;;;;;5030594;28;20224;-79
2023/10/19 10:36:28;;;;;;;3.20;0.90;;;20.20;99.90;;;;;;5037981;28;20259;-80
2023/10/19 10:39:14;;;;;;;5.97;1.10;;;20.10;99.90;;;;;;5034779;28;20193;-79
2023/10/19 10:41:45;;;;;;;6.43;1.25;;;20.10;99.90;;;;;;5035714;28;20203;-79
2023/10/19 10:44:16;;;;;;;8.90;1.25;;;20.10;99.90;;;;;;5030048;28;20196;-79
2023/10/19 10:46:49;;;;;;;4.05;0.95;;;20.10;99.90;;;;;;5030898;28;20217;-80
2023/10/19 10:49:22;;;;;;;6.53;1.10;;;20.10;99.90;;;;;;5037094;28;20267;-80
2023/10/19 10:51:56;;;;;;;4.28;1.02;;;20.00;99.90;;;;;;5035402;28;20227;-78
2023/10/19 10:54:28;;;;;;;3.60;1.05;;;20.00;99.90;;;;;;5027727;28;20211;-78
2023/10/19 10:56:58;;;;;;;5.72;1.25;;;20.00;99.90;;;;;;5015719;28;20208;-78
2023/10/19 10:59:29;;;;;;;5.35;1.17;;;20.10;99.90;;;;;;5021596;28;20200;-78
2023/10/19 11:02:00;;;;;;;7.05;1.30;;;20.00;99.90;;;;;;5012836;28;20198;-79
2023/10/19 11:04:33;;;;;;;7.07;1.05;;;20.00;99.90;;;;;;5014553;28;20272;-79
2023/10/19 11:07:04;;;;;;;5.75;1.10;;;20.00;99.90;;;;;;5014829;28;20232;-78
2023/10/19 11:09:48;;;;;;;7.53;1.10;;;20.10;99.90;;;;;;5033815;28;20205;-79
2023/10/19 11:12:19;;;;;;;4.53;1.05;;;20.10;99.90;;;;;;5032827;28;20197;-77
2023/10/19 11:14:59;;;;;;;6.72;1.23;;;20.10;99.90;;;;;;5029769;28;20563;-79
2023/10/19 11:17:32;;;;;;;5.38;1.20;;;20.10;99.90;;;;;;5018773;28;20198;-78
2023/10/19 11:20:05;;;;;;;7.85;1.20;;;20.10;99.90;;;;;;5039482;28;20224;-79
2023/10/19 11:22:50;;;;;;;4.10;1.00;;;20.00;99.90;;;;;;5019442;28;20202;-78
2023/10/19 11:25:26;;;;;;;6.60;1.10;;;20.00;99.90;;;;;;5030673;28;20651;-79
2023/10/19 11:27:57;;;;;;;5.20;1.20;;;20.00;99.90;;;;;;5029963;28;20232;-78
2023/10/19 11:30:31;;;;;;;6.55;1.23;;;20.00;99.90;;;;;;5034316;28;20228;-78
2023/10/19 11:33:03;;;;;;;7.38;1.25;;;20.00;99.90;;;;;;5032007;28;20204;-78
2023/10/19 11:35:35;;;;;;;6.85;1.35;;;19.90;99.90;;;;;;5024615;28;20217;-80
2023/10/19 11:38:06;;;;;;;6.25;1.48;;;19.90;99.90;;;;;;5035616;28;20220;-79
2023/10/19 11:40:41;;;;;;;5.45;1.20;;;19.90;99.90;;;;;;5027893;28;20230;-80
2023/10/19 11:43:12;;;;;;;5.53;1.10;;;19.90;99.90;;;;;;5028706;28;20209;-77
2023/10/19 11:45:43;;;;;;;8.38;1.45;;;19.90;99.90;;;;;;5023844;28;20252;-79
2023/10/19 11:48:14;;;;;;;5.53;1.20;;;20.00;99.90;;;;;;5013529;28;20716;-78
2023/10/19 11:50:47;;;;;;;9.90;1.60;;;19.90;99.90;;;;;;5025134;28;20280;-81
2023/10/19 11:53:18;;;;;;;6.88;1.30;;;19.80;99.90;;;;;;5032506;28;20292;-78
2023/10/19 11:55:49;;;;;;;6.03;1.25;;;19.80;99.90;;;;;;5034421;28;20229;-79
2023/10/19 11:58:20;;;;;;;4.63;1.63;;;19.80;99.90;;;;;;5019423;28;20248;-78
2023/10/19 12:00:51;;;;;;;7.50;1.10;;;19.80;99.90;;;;;;5021728;28;20216;-78
2023/10/19 12:03:22;;;;;;;5.43;1.20;;;19.80;99.90;;;;;;5025854;28;20207;-78
2023/10/19 12:05:56;;;;;;;4.65;1.30;;;19.70;99.90;;;;;;5031093;28;20201;-79
2023/10/19 12:08:26;;;;;;;4.45;1.20;;;19.80;99.90;;;;;;5022978;28;20236;-78
2023/10/19 12:11:01;;;;;;;6.57;1.35;;;19.80;99.90;;;;;;5031277;28;20237;-79
2023/10/19 12:13:32;;;;;;;6.20;1.45;;;19.70;99.90;;;;;;5027638;28;20289;-77
2023/10/19 12:16:04;;;;;;;5.03;1.13;;;19.70;99.90;;;;;;5019145;28;20193;-76
2023/10/19 12:18:35;;;;;;;4.13;1.05;;;19.70;99.90;;;;;;5020795;28;20214;-77
2023/10/19 12:21:11;;;;;;;4.55;1.30;;;19.60;99.90;;;;;;5048887;28;20201;-78
2023/10/19 12:23:44;;;;;;;5.32;1.30;;;19.70;99.90;;;;;;5033258;28;20201;-78
2023/10/19 12:26:14;;;;;;;6.22;1.30;;;19.70;99.90;;;;;;5034044;28;20193;-78
2023/10/19 12:31:14;;;;;;;2.83;1.00;;;19.70;99.90;;;;;;5059211;28;20214;-77
2023/10/19 12:33:45;;;;;;;5.18;1.10;;;19.60;99.90;;;;;;5069705;28;20275;-78
2023/10/19 12:36:31;;;;;;;7.03;1.48;;;19.60;99.90;;;;;;5057644;28;20276;-78
2023/10/19 12:39:04;;;;;;;4.90;1.08;;;19.50;99.90;;;;;;5071074;28;20195;-78
2023/10/19 12:41:35;;;;;;;4.45;1.10;;;19.50;99.90;;;;;;5067680;28;20219;-78
2023/10/19 12:44:12;;;;;;;3.88;1.00;;;19.50;99.90;;;;;;5050766;28;20196;-78
2023/10/19 12:46:42;;;;;;;4.82;1.27;;;19.40;99.90;;;;;;5050076;28;20204;-78
2023/10/19 12:49:18;;;;;;;5.15;1.13;;;19.50;99.90;;;;;;5050943;28;20204;-79
2023/10/19 12:51:51;;;;;;;5.18;1.42;;;19.50;99.90;;;;;;5036034;28;20212;-78
2023/10/19 12:54:25;;;;;;;4.55;1.20;;;19.40;99.90;;;;;;5030691;28;20208;-78
2023/10/19 12:56:57;;;;;;;7.35;1.20;;;19.40;99.90;;;;;;5039416;28;20204;-78
2023/10/19 12:59:29;;;;;;;5.60;1.33;;;19.40;99.90;;;;;;5041098;28;20204;-77
2023/10/19 13:02:03;;;;;;;3.72;1.00;;;19.40;99.90;;;;;;5067759;28;20200;-78
2023/10/19 13:04:33;;;;;;;5.10;1.20;;;19.30;99.90;;;;;;5048124;28;20236;-78
2023/10/19 13:07:10;;;;;;;5.53;0.98;;;19.30;99.90;;;;;;5050283;28;20693;-77
2023/10/19 13:09:44;;;;;;;5.55;1.20;;;19.30;99.90;;;;;;5048288;28;20254;-77
2023/10/19 13:12:14;;;;;;;4.78;1.00;;;19.20;99.90;;;;;;5049021;28;20200;-78
2023/10/19 13:14:49;;;;;;;6.20;1.20;;;19.20;99.90;;;;;;5050690;28;20192;-78
2023/10/19 13:17:19;;;;;;;7.30;1.20;;;19.20;99.90;;;;;;5039184;28;20208;-78
2023/10/19 13:19:55;;;;;;;5.90;1.30;;;19.20;99.90;;;;;;5049980;28;20204;-77